sensor_id;sensor_type;location;lat;lon;timestamp;P1;durP1;ratioP1;P2;durP2;ratioP2
18249;SDS011;27980;52.126;5.572;2023-03-14T00:02:04;8.55;;;3.70;;
18249;SDS011;27980;52.126;5.572;2023-03-14T00:04:30;11.60;;;3.92;;
18249;SDS011;27980;52.126;5.572;2023-03-14T00:06:57;9.60;;;3.33;;
18249;SDS011;27980;52.126;5.572;2023-03-14T00:09:23;12.43;;;4.15;;
18249;SDS011;27980;52.126;5.572;2023-03-14T00:11:52;10.57;;;3.72;;
18249;SDS011;27980;52.126;5.572;2023-03-14T00:14:19;11.93;;;4.25;;
18249;SDS011;27980;52.126;5.572;2023-03-14T00:16:47;11.48;;;3.80;;
18249;SDS011;27980;52.126;5.572;2023-03-14T00:19:13;13.68;;;4.30;;
18249;SDS011;27980;52.126;5.572;2023-03-14T00:21:40;15.43;;;3.80;;
18249;SDS011;27980;52.126;5.572;2023-03-14T00:24:07;15.80;;;4.05;;
18249;SDS011;27980;52.126;5.572;2023-03-14T00:26:33;14.95;;;3.65;;
18249;SDS011;27980;52.126;5.572;2023-03-14T00:29:01;15.75;;;3.78;;
18249;SDS011;27980;52.126;5.572;2023-03-14T00:31:27;16.77;;;3.80;;
18249;SDS011;27980;52.126;5.572;2023-03-14T00:33:54;10.15;;;2.72;;
18249;SDS011;27980;52.126;5.572;2023-03-14T00:36:21;12.50;;;3.58;;
18249;SDS011;27980;52.126;5.572;2023-03-14T00:38:48;9.40;;;2.97;;
18249;SDS011;27980;52.126;5.572;2023-03-14T00:41:15;11.93;;;3.30;;
18249;SDS011;27980;52.126;5.572;2023-03-14T00:43:42;8.75;;;2.60;;
18249;SDS011;27980;52.126;5.572;2023-03-14T00:46:11;9.73;;;2.60;;
18249;SDS011;27980;52.126;5.572;2023-03-14T00:48:37;14.90;;;3.25;;
18249;SDS011;27980;52.126;5.572;2023-03-14T00:51:05;14.32;;;2.65;;
18249;SDS011;27980;52.126;5.572;2023-03-14T00:53:35;10.38;;;2.80;;
18249;SDS011;27980;52.126;5.572;2023-03-14T00:56:02;16.08;;;3.38;;
18249;SDS011;27980;52.126;5.572;2023-03-14T00:58:29;9.45;;;2.88;;
18249;SDS011;27980;52.126;5.572;2023-03-14T01:00:56;9.88;;;2.50;;
18249;SDS011;27980;52.126;5.572;2023-03-14T01:03:24;10.18;;;2.83;;
18249;SDS011;27980;52.126;5.572;2023-03-14T01:05:50;11.15;;;2.28;;
18249;SDS011;27980;52.126;5.572;2023-03-14T01:08:17;8.15;;;2.42;;
18249;SDS011;27980;52.126;5.572;2023-03-14T01:10:43;9.00;;;2.28;;
18249;SDS011;27980;52.126;5.572;2023-03-14T01:13:10;5.95;;;2.28;;
18249;SDS011;27980;52.126;5.572;2023-03-14T01:15:36;8.85;;;2.88;;
18249;SDS011;27980;52.126;5.572;2023-03-14T01:18:03;11.85;;;2.30;;
18249;SDS011;27980;52.126;5.572;2023-03-14T01:20:31;12.35;;;2.90;;
18249;SDS011;27980;52.126;5.572;2023-03-14T01:22:58;7.65;;;2.10;;
18249;SDS011;27980;52.126;5.572;2023-03-14T01:25:24;12.48;;;2.40;;
18249;SDS011;27980;52.126;5.572;2023-03-14T01:27:51;9.13;;;2.40;;
18249;SDS011;27980;52.126;5.572;2023-03-14T01:30:17;7.53;;;2.42;;
18249;SDS011;27980;52.126;5.572;2023-03-14T01:32:43;8.43;;;2.40;;
18249;SDS011;27980;52.126;5.572;2023-03-14T01:35:10;8.75;;;2.30;;
18249;SDS011;27980;52.126;5.572;2023-03-14T01:37:38;10.88;;;2.60;;
18249;SDS011;27980;52.126;5.572;2023-03-14T01:40:04;9.82;;;2.38;;
18249;SDS011;27980;52.126;5.572;2023-03-14T01:42:31;6.25;;;2.03;;
18249;SDS011;27980;52.126;5.572;2023-03-14T01:44:58;6.65;;;2.00;;
18249;SDS011;27980;52.126;5.572;2023-03-14T01:47:25;6.40;;;2.10;;
18249;SDS011;27980;52.126;5.572;2023-03-14T01:49:52;4.40;;;1.85;;
18249;SDS011;27980;52.126;5.572;2023-03-14T01:52:20;6.22;;;1.83;;
18249;SDS011;27980;52.126;5.572;2023-03-14T01:54:50;6.95;;;2.08;;
18249;SDS011;27980;52.126;5.572;2023-03-14T01:57:18;8.32;;;1.95;;
18249;SDS011;27980;52.126;5.572;2023-03-14T01:59:46;7.10;;;2.20;;
18249;SDS011;27980;52.126;5.572;2023-03-14T02:02:14;10.10;;;2.22;;
18249;SDS011;27980;52.126;5.572;2023-03-14T02:04:41;8.48;;;2.03;;
18249;SDS011;27980;52.126;5.572;2023-03-14T02:07:09;9.45;;;1.92;;
18249;SDS011;27980;52.126;5.572;2023-03-14T02:09:37;5.90;;;1.90;;
18249;SDS011;27980;52.126;5.572;2023-03-14T02:12:06;12.52;;;2.90;;
18249;SDS011;27980;52.126;5.572;2023-03-14T02:14:35;10.18;;;2.45;;
18249;SDS011;27980;52.126;5.572;2023-03-14T02:17:03;7.90;;;2.20;;
18249;SDS011;27980;52.126;5.572;2023-03-14T02:19:34;9.80;;;2.78;;
18249;SDS011;27980;52.126;5.572;2023-03-14T02:22:05;12.20;;;2.30;;
18249;SDS011;27980;52.126;5.572;2023-03-14T02:24:34;8.07;;;2.40;;
18249;SDS011;27980;52.126;5.572;2023-03-14T02:27:05;11.02;;;2.30;;
18249;SDS011;27980;52.126;5.572;2023-03-14T02:29:31;8.60;;;2.45;;
18249;SDS011;27980;52.126;5.572;2023-03-14T02:31:59;9.40;;;2.65;;
18249;SDS011;27980;52.126;5.572;2023-03-14T02:34:26;9.07;;;3.35;;
18249;SDS011;27980;52.126;5.572;2023-03-14T02:36:52;9.55;;;2.80;;
18249;SDS011;27980;52.126;5.572;2023-03-14T02:39:19;10.63;;;2.75;;
18249;SDS011;27980;52.126;5.572;2023-03-14T02:41:48;8.90;;;3.50;;
18249;SDS011;27980;52.126;5.572;2023-03-14T02:44:16;8.40;;;3.55;;
18249;SDS011;27980;52.126;5.572;2023-03-14T02:46:42;8.93;;;3.28;;
18249;SDS011;27980;52.126;5.572;2023-03-14T02:49:10;13.60;;;4.75;;
18249;SDS011;27980;52.126;5.572;2023-03-14T02:51:38;11.02;;;3.90;;
18249;SDS011;27980;52.126;5.572;2023-03-14T02:54:06;12.52;;;3.92;;
18249;SDS011;27980;52.126;5.572;2023-03-14T02:56:32;12.32;;;3.72;;
18249;SDS011;27980;52.126;5.572;2023-03-14T02:58:58;6.57;;;3.55;;
18249;SDS011;27980;52.126;5.572;2023-03-14T03:01:26;11.73;;;4.13;;
18249;SDS011;27980;52.126;5.572;2023-03-14T03:03:53;10.05;;;3.65;;
18249;SDS011;27980;52.126;5.572;2023-03-14T03:06:19;9.80;;;3.38;;
18249;SDS011;27980;52.126;5.572;2023-03-14T03:08:46;10.55;;;3.78;;
18249;SDS011;27980;52.126;5.572;2023-03-14T03:11:12;10.23;;;3.70;;
18249;SDS011;27980;52.126;5.572;2023-03-14T03:13:38;7.53;;;3.20;;
18249;SDS011;27980;52.126;5.572;2023-03-14T03:16:06;10.48;;;3.88;;
18249;SDS011;27980;52.126;5.572;2023-03-14T03:18:34;9.80;;;3.80;;
18249;SDS011;27980;52.126;5.572;2023-03-14T03:21:00;7.85;;;3.17;;
18249;SDS011;27980;52.126;5.572;2023-03-14T03:23:30;10.57;;;3.78;;
18249;SDS011;27980;52.126;5.572;2023-03-14T03:25:57;12.10;;;3.92;;
18249;SDS011;27980;52.126;5.572;2023-03-14T03:28:23;9.60;;;3.30;;
18249;SDS011;27980;52.126;5.572;2023-03-14T03:30:50;11.57;;;3.85;;
18249;SDS011;27980;52.126;5.572;2023-03-14T03:33:16;11.90;;;3.45;;
18249;SDS011;27980;52.126;5.572;2023-03-14T03:35:45;11.98;;;3.17;;
18249;SDS011;27980;52.126;5.572;2023-03-14T03:38:12;9.95;;;3.17;;
18249;SDS011;27980;52.126;5.572;2023-03-14T03:40:39;10.98;;;3.53;;
18249;SDS011;27980;52.126;5.572;2023-03-14T03:43:05;9.63;;;2.85;;
18249;SDS011;27980;52.126;5.572;2023-03-14T03:45:32;7.38;;;3.22;;
18249;SDS011;27980;52.126;5.572;2023-03-14T03:47:58;10.38;;;2.92;;
18249;SDS011;27980;52.126;5.572;2023-03-14T03:50:26;10.25;;;3.47;;
18249;SDS011;27980;52.126;5.572;2023-03-14T03:52:53;9.43;;;3.10;;
18249;SDS011;27980;52.126;5.572;2023-03-14T03:55:20;9.05;;;3.08;;
18249;SDS011;27980;52.126;5.572;2023-03-14T03:57:46;9.20;;;3.05;;
18249;SDS011;27980;52.126;5.572;2023-03-14T04:00:16;10.75;;;3.10;;
18249;SDS011;27980;52.126;5.572;2023-03-14T04:02:42;7.18;;;3.05;;
18249;SDS011;27980;52.126;5.572;2023-03-14T04:05:09;9.02;;;2.90;;
18249;SDS011;27980;52.126;5.572;2023-03-14T04:07:35;8.10;;;3.30;;
18249;SDS011;27980;52.126;5.572;2023-03-14T04:10:03;9.77;;;3.20;;
18249;SDS011;27980;52.126;5.572;2023-03-14T04:12:29;7.50;;;2.75;;
18249;SDS011;27980;52.126;5.572;2023-03-14T04:14:56;9.32;;;3.17;;
18249;SDS011;27980;52.126;5.572;2023-03-14T04:17:22;9.35;;;2.83;;
18249;SDS011;27980;52.126;5.572;2023-03-14T04:19:48;9.32;;;3.00;;
18249;SDS011;27980;52.126;5.572;2023-03-14T04:22:16;9.90;;;2.30;;
18249;SDS011;27980;52.126;5.572;2023-03-14T04:24:42;11.73;;;3.00;;
18249;SDS011;27980;52.126;5.572;2023-03-14T04:27:10;11.18;;;2.78;;
18249;SDS011;27980;52.126;5.572;2023-03-14T04:29:39;10.40;;;2.33;;
18249;SDS011;27980;52.126;5.572;2023-03-14T04:32:05;10.02;;;2.88;;
18249;SDS011;27980;52.126;5.572;2023-03-14T04:34:32;9.32;;;2.90;;
18249;SDS011;27980;52.126;5.572;2023-03-14T04:36:58;12.90;;;3.28;;
18249;SDS011;27980;52.126;5.572;2023-03-14T04:39:25;12.23;;;2.70;;
18249;SDS011;27980;52.126;5.572;2023-03-14T04:41:51;9.98;;;2.78;;
18249;SDS011;27980;52.126;5.572;2023-03-14T04:44:19;7.90;;;2.70;;
18249;SDS011;27980;52.126;5.572;2023-03-14T04:46:46;8.70;;;3.00;;
18249;SDS011;27980;52.126;5.572;2023-03-14T04:49:13;12.32;;;3.10;;
18249;SDS011;27980;52.126;5.572;2023-03-14T04:51:39;10.35;;;2.95;;
18249;SDS011;27980;52.126;5.572;2023-03-14T04:54:05;9.45;;;2.65;;
18249;SDS011;27980;52.126;5.572;2023-03-14T04:56:32;10.80;;;3.10;;
18249;SDS011;27980;52.126;5.572;2023-03-14T04:58:58;10.10;;;3.30;;
18249;SDS011;27980;52.126;5.572;2023-03-14T05:01:26;12.05;;;3.10;;
18249;SDS011;27980;52.126;5.572;2023-03-14T05:03:52;8.43;;;2.50;;
18249;SDS011;27980;52.126;5.572;2023-03-14T05:06:19;10.05;;;3.20;;
18249;SDS011;27980;52.126;5.572;2023-03-14T05:08:45;12.40;;;3.67;;
18249;SDS011;27980;52.126;5.572;2023-03-14T05:11:12;9.68;;;3.20;;
18249;SDS011;27980;52.126;5.572;2023-03-14T05:13:38;7.93;;;2.55;;
18249;SDS011;27980;52.126;5.572;2023-03-14T05:16:05;8.85;;;2.90;;
18249;SDS011;27980;52.126;5.572;2023-03-14T05:18:33;9.18;;;3.22;;
18249;SDS011;27980;52.126;5.572;2023-03-14T05:21:00;9.13;;;3.33;;
18249;SDS011;27980;52.126;5.572;2023-03-14T05:23:26;7.00;;;2.97;;
18249;SDS011;27980;52.126;5.572;2023-03-14T05:25:53;9.65;;;2.80;;
18249;SDS011;27980;52.126;5.572;2023-03-14T05:28:19;9.38;;;3.13;;
18249;SDS011;27980;52.126;5.572;2023-03-14T05:30:46;10.57;;;3.70;;
18249;SDS011;27980;52.126;5.572;2023-03-14T05:33:12;11.00;;;3.72;;
18249;SDS011;27980;52.126;5.572;2023-03-14T05:35:40;10.23;;;3.50;;
18249;SDS011;27980;52.126;5.572;2023-03-14T05:38:07;12.63;;;3.92;;
18249;SDS011;27980;52.126;5.572;2023-03-14T05:40:34;7.68;;;3.60;;
18249;SDS011;27980;52.126;5.572;2023-03-14T05:43:01;14.85;;;4.00;;
18249;SDS011;27980;52.126;5.572;2023-03-14T05:45:27;11.07;;;4.57;;
18249;SDS011;27980;52.126;5.572;2023-03-14T05:47:54;8.18;;;3.97;;
18249;SDS011;27980;52.126;5.572;2023-03-14T05:50:20;5.90;;;3.70;;
18249;SDS011;27980;52.126;5.572;2023-03-14T05:52:48;8.48;;;4.68;;
18249;SDS011;27980;52.126;5.572;2023-03-14T05:55:14;10.57;;;4.57;;
18249;SDS011;27980;52.126;5.572;2023-03-14T05:57:41;12.18;;;4.35;;
18249;SDS011;27980;52.126;5.572;2023-03-14T06:00:08;10.75;;;4.68;;
18249;SDS011;27980;52.126;5.572;2023-03-14T06:02:34;12.52;;;5.40;;
18249;SDS011;27980;52.126;5.572;2023-03-14T06:05:01;12.45;;;5.28;;
18249;SDS011;27980;52.126;5.572;2023-03-14T06:07:27;10.60;;;4.82;;
18249;SDS011;27980;52.126;5.572;2023-03-14T06:09:55;10.05;;;5.57;;
18249;SDS011;27980;52.126;5.572;2023-03-14T06:12:21;10.63;;;5.38;;
18249;SDS011;27980;52.126;5.572;2023-03-14T06:14:48;10.48;;;5.78;;
18249;SDS011;27980;52.126;5.572;2023-03-14T06:17:14;12.48;;;5.20;;
18249;SDS011;27980;52.126;5.572;2023-03-14T06:19:42;11.18;;;5.85;;
18249;SDS011;27980;52.126;5.572;2023-03-14T06:22:09;12.10;;;5.85;;
18249;SDS011;27980;52.126;5.572;2023-03-14T06:24:35;8.82;;;5.35;;
18249;SDS011;27980;52.126;5.572;2023-03-14T06:27:03;10.48;;;5.35;;
18249;SDS011;27980;52.126;5.572;2023-03-14T06:29:30;11.43;;;5.80;;
18249;SDS011;27980;52.126;5.572;2023-03-14T06:31:56;10.93;;;5.97;;
18249;SDS011;27980;52.126;5.572;2023-03-14T06:34:25;10.95;;;6.22;;
18249;SDS011;27980;52.126;5.572;2023-03-14T06:36:51;10.73;;;5.68;;
18249;SDS011;27980;52.126;5.572;2023-03-14T06:39:18;12.60;;;6.65;;
18249;SDS011;27980;52.126;5.572;2023-03-14T06:41:45;10.93;;;6.13;;
18249;SDS011;27980;52.126;5.572;2023-03-14T06:44:13;14.30;;;7.05;;
18249;SDS011;27980;52.126;5.572;2023-03-14T06:46:40;11.48;;;6.70;;
18249;SDS011;27980;52.126;5.572;2023-03-14T06:49:06;14.25;;;7.30;;
18249;SDS011;27980;52.126;5.572;2023-03-14T06:51:32;12.77;;;7.47;;
18249;SDS011;27980;52.126;5.572;2023-03-14T06:53:59;17.92;;;8.18;;
18249;SDS011;27980;52.126;5.572;2023-03-14T06:56:25;11.38;;;8.23;;
18249;SDS011;27980;52.126;5.572;2023-03-14T06:58:52;13.02;;;7.25;;
18249;SDS011;27980;52.126;5.572;2023-03-14T07:01:22;17.02;;;6.88;;
18249;SDS011;27980;52.126;5.572;2023-03-14T07:03:49;9.05;;;5.18;;
18249;SDS011;27980;52.126;5.572;2023-03-14T07:06:15;4.90;;;3.38;;
18249;SDS011;27980;52.126;5.572;2023-03-14T07:08:42;4.78;;;2.15;;
18249;SDS011;27980;52.126;5.572;2023-03-14T07:11:08;3.30;;;1.65;;
18249;SDS011;27980;52.126;5.572;2023-03-14T07:13:36;3.35;;;1.45;;
18249;SDS011;27980;52.126;5.572;2023-03-14T07:16:02;3.17;;;1.90;;
18249;SDS011;27980;52.126;5.572;2023-03-14T07:18:30;6.20;;;1.75;;
18249;SDS011;27980;52.126;5.572;2023-03-14T07:20:57;2.80;;;1.67;;
18249;SDS011;27980;52.126;5.572;2023-03-14T07:23:24;3.60;;;1.60;;
18249;SDS011;27980;52.126;5.572;2023-03-14T07:25:50;2.58;;;1.48;;
18249;SDS011;27980;52.126;5.572;2023-03-14T07:28:18;3.30;;;1.48;;
18249;SDS011;27980;52.126;5.572;2023-03-14T07:30:45;1.75;;;1.55;;
18249;SDS011;27980;52.126;5.572;2023-03-14T07:33:12;4.47;;;1.63;;
18249;SDS011;27980;52.126;5.572;2023-03-14T07:35:40;3.17;;;1.90;;
18249;SDS011;27980;52.126;5.572;2023-03-14T07:38:06;4.25;;;1.88;;
18249;SDS011;27980;52.126;5.572;2023-03-14T07:40:32;2.58;;;1.90;;
18249;SDS011;27980;52.126;5.572;2023-03-14T07:42:59;4.10;;;1.67;;
18249;SDS011;27980;52.126;5.572;2023-03-14T07:45:25;3.95;;;1.50;;
18249;SDS011;27980;52.126;5.572;2023-03-14T07:47:52;3.20;;;1.50;;
18249;SDS011;27980;52.126;5.572;2023-03-14T07:50:22;4.65;;;1.00;;
18249;SDS011;27980;52.126;5.572;2023-03-14T07:52:50;3.50;;;1.60;;
18249;SDS011;27980;52.126;5.572;2023-03-14T07:55:16;4.15;;;1.40;;
18249;SDS011;27980;52.126;5.572;2023-03-14T07:57:43;3.28;;;1.50;;
18249;SDS011;27980;52.126;5.572;2023-03-14T08:00:10;3.00;;;1.40;;
18249;SDS011;27980;52.126;5.572;2023-03-14T08:02:39;4.10;;;1.65;;
18249;SDS011;27980;52.126;5.572;2023-03-14T08:05:08;4.30;;;1.65;;
18249;SDS011;27980;52.126;5.572;2023-03-14T08:07:35;4.25;;;1.50;;
18249;SDS011;27980;52.126;5.572;2023-03-14T08:10:03;4.13;;;1.38;;
18249;SDS011;27980;52.126;5.572;2023-03-14T08:12:31;5.80;;;1.70;;
18249;SDS011;27980;52.126;5.572;2023-03-14T08:14:58;9.02;;;1.35;;
18249;SDS011;27980;52.126;5.572;2023-03-14T08:17:25;5.88;;;1.73;;
18249;SDS011;27980;52.126;5.572;2023-03-14T08:19:51;6.30;;;0.95;;
18249;SDS011;27980;52.126;5.572;2023-03-14T08:22:18;3.95;;;1.20;;
18249;SDS011;27980;52.126;5.572;2023-03-14T08:24:45;6.60;;;1.20;;
18249;SDS011;27980;52.126;5.572;2023-03-14T08:27:13;4.38;;;1.00;;
18249;SDS011;27980;52.126;5.572;2023-03-14T08:29:40;4.35;;;0.85;;
18249;SDS011;27980;52.126;5.572;2023-03-14T08:32:08;7.68;;;1.13;;
18249;SDS011;27980;52.126;5.572;2023-03-14T08:34:35;8.70;;;1.75;;
18249;SDS011;27980;52.126;5.572;2023-03-14T08:37:02;6.68;;;1.60;;
18249;SDS011;27980;52.126;5.572;2023-03-14T08:39:28;6.45;;;1.00;;
18249;SDS011;27980;52.126;5.572;2023-03-14T08:41:55;6.28;;;0.95;;
18249;SDS011;27980;52.126;5.572;2023-03-14T08:44:23;5.57;;;1.05;;
18249;SDS011;27980;52.126;5.572;2023-03-14T08:46:49;6.00;;;1.40;;
18249;SDS011;27980;52.126;5.572;2023-03-14T08:49:16;3.42;;;1.38;;
18249;SDS011;27980;52.126;5.572;2023-03-14T08:51:42;6.65;;;1.30;;
18249;SDS011;27980;52.126;5.572;2023-03-14T08:54:09;4.78;;;1.20;;
18249;SDS011;27980;52.126;5.572;2023-03-14T08:56:36;4.03;;;1.02;;
18249;SDS011;27980;52.126;5.572;2023-03-14T08:59:03;4.30;;;1.05;;
18249;SDS011;27980;52.126;5.572;2023-03-14T09:01:31;3.05;;;0.88;;
18249;SDS011;27980;52.126;5.572;2023-03-14T09:03:57;2.97;;;0.82;;
18249;SDS011;27980;52.126;5.572;2023-03-14T09:06:24;4.07;;;1.00;;
18249;SDS011;27980;52.126;5.572;2023-03-14T09:08:50;3.30;;;0.90;;
18249;SDS011;27980;52.126;5.572;2023-03-14T09:11:17;3.10;;;1.05;;
18249;SDS011;27980;52.126;5.572;2023-03-14T09:13:44;3.83;;;1.02;;
18249;SDS011;27980;52.126;5.572;2023-03-14T09:16:10;1.50;;;0.80;;
18249;SDS011;27980;52.126;5.572;2023-03-14T09:18:38;6.07;;;1.17;;
18249;SDS011;27980;52.126;5.572;2023-03-14T09:21:05;5.60;;;1.30;;
18249;SDS011;27980;52.126;5.572;2023-03-14T09:23:31;5.47;;;1.10;;
18249;SDS011;27980;52.126;5.572;2023-03-14T09:25:58;6.70;;;1.17;;
18249;SDS011;27980;52.126;5.572;2023-03-14T09:28:25;8.48;;;1.88;;
18249;SDS011;27980;52.126;5.572;2023-03-14T09:30:52;4.82;;;1.23;;
18249;SDS011;27980;52.126;5.572;2023-03-14T09:33:19;5.50;;;1.55;;
18249;SDS011;27980;52.126;5.572;2023-03-14T09:35:47;13.85;;;2.13;;
18249;SDS011;27980;52.126;5.572;2023-03-14T09:38:13;8.30;;;1.67;;
18249;SDS011;27980;52.126;5.572;2023-03-14T09:40:41;9.07;;;2.03;;
18249;SDS011;27980;52.126;5.572;2023-03-14T09:43:09;15.50;;;2.38;;
18249;SDS011;27980;52.126;5.572;2023-03-14T09:45:36;6.53;;;1.65;;
18249;SDS011;27980;52.126;5.572;2023-03-14T09:48:05;6.93;;;1.65;;
18249;SDS011;27980;52.126;5.572;2023-03-14T09:50:33;10.25;;;2.03;;
18249;SDS011;27980;52.126;5.572;2023-03-14T09:53:04;9.20;;;2.42;;
18249;SDS011;27980;52.126;5.572;2023-03-14T09:55:32;9.52;;;2.17;;
18249;SDS011;27980;52.126;5.572;2023-03-14T09:57:59;8.10;;;2.60;;
18249;SDS011;27980;52.126;5.572;2023-03-14T10:00:27;13.80;;;2.38;;
18249;SDS011;27980;52.126;5.572;2023-03-14T10:02:56;11.50;;;2.17;;
18249;SDS011;27980;52.126;5.572;2023-03-14T10:05:24;11.85;;;2.05;;
18249;SDS011;27980;52.126;5.572;2023-03-14T10:07:51;14.25;;;2.40;;
18249;SDS011;27980;52.126;5.572;2023-03-14T10:10:20;18.63;;;3.03;;
18249;SDS011;27980;52.126;5.572;2023-03-14T10:12:47;19.40;;;2.95;;
18249;SDS011;27980;52.126;5.572;2023-03-14T10:15:14;15.85;;;2.75;;
18249;SDS011;27980;52.126;5.572;2023-03-14T10:17:44;15.77;;;3.03;;
18249;SDS011;27980;52.126;5.572;2023-03-14T10:20:25;13.52;;;2.33;;
18249;SDS011;27980;52.126;5.572;2023-03-14T10:22:57;12.15;;;2.38;;
18249;SDS011;27980;52.126;5.572;2023-03-14T10:25:27;9.70;;;2.15;;
18249;SDS011;27980;52.126;5.572;2023-03-14T10:27:54;12.57;;;2.70;;
18249;SDS011;27980;52.126;5.572;2023-03-14T10:33:11;12.90;;;2.83;;
18249;SDS011;27980;52.126;5.572;2023-03-14T10:35:39;15.57;;;2.88;;
18249;SDS011;27980;52.126;5.572;2023-03-14T10:38:11;15.45;;;3.13;;
18249;SDS011;27980;52.126;5.572;2023-03-14T10:40:40;14.02;;;2.72;;
18249;SDS011;27980;52.126;5.572;2023-03-14T10:43:11;12.80;;;2.55;;
18249;SDS011;27980;52.126;5.572;2023-03-14T10:45:39;11.82;;;2.50;;
18249;SDS011;27980;52.126;5.572;2023-03-14T10:48:18;15.60;;;3.53;;
18249;SDS011;27980;52.126;5.572;2023-03-14T10:50:48;18.20;;;2.90;;
18249;SDS011;27980;52.126;5.572;2023-03-14T10:53:16;15.40;;;3.05;;
18249;SDS011;27980;52.126;5.572;2023-03-14T10:55:44;15.27;;;3.17;;
18249;SDS011;27980;52.126;5.572;2023-03-14T10:58:21;9.02;;;2.35;;
18249;SDS011;27980;52.126;5.572;2023-03-14T11:00:51;16.02;;;3.03;;
18249;SDS011;27980;52.126;5.572;2023-03-14T11:03:19;18.27;;;3.60;;
18249;SDS011;27980;52.126;5.572;2023-03-14T11:05:49;17.70;;;2.72;;
18249;SDS011;27980;52.126;5.572;2023-03-14T11:08:19;17.98;;;3.28;;
18249;SDS011;27980;52.126;5.572;2023-03-14T11:10:49;12.80;;;2.92;;
18249;SDS011;27980;52.126;5.572;2023-03-14T11:13:19;15.80;;;2.95;;
18249;SDS011;27980;52.126;5.572;2023-03-14T11:15:51;14.85;;;3.05;;
18249;SDS011;27980;52.126;5.572;2023-03-14T11:21:05;15.32;;;2.72;;
18249;SDS011;27980;52.126;5.572;2023-03-14T11:23:38;18.80;;;3.38;;
18249;SDS011;27980;52.126;5.572;2023-03-14T11:26:12;10.95;;;2.60;;
18249;SDS011;27980;52.126;5.572;2023-03-14T11:28:40;17.08;;;2.88;;
18249;SDS011;27980;52.126;5.572;2023-03-14T11:31:11;14.25;;;2.55;;
18249;SDS011;27980;52.126;5.572;2023-03-14T11:33:45;12.27;;;2.20;;
18249;SDS011;27980;52.126;5.572;2023-03-14T11:36:14;11.57;;;2.55;;
18249;SDS011;27980;52.126;5.572;2023-03-14T11:38:42;12.25;;;2.25;;
18249;SDS011;27980;52.126;5.572;2023-03-14T11:41:14;11.45;;;3.03;;
18249;SDS011;27980;52.126;5.572;2023-03-14T11:43:41;10.57;;;2.22;;
18249;SDS011;27980;52.126;5.572;2023-03-14T11:46:09;7.38;;;1.90;;
18249;SDS011;27980;52.126;5.572;2023-03-14T11:48:38;13.20;;;2.33;;
18249;SDS011;27980;52.126;5.572;2023-03-14T11:51:07;14.95;;;2.47;;
18249;SDS011;27980;52.126;5.572;2023-03-14T11:53:40;9.95;;;2.20;;
18249;SDS011;27980;52.126;5.572;2023-03-14T11:56:10;11.23;;;2.22;;
18249;SDS011;27980;52.126;5.572;2023-03-14T11:58:46;11.23;;;2.75;;
18249;SDS011;27980;52.126;5.572;2023-03-14T12:01:13;12.02;;;2.25;;
18249;SDS011;27980;52.126;5.572;2023-03-14T12:03:42;9.43;;;2.10;;
18249;SDS011;27980;52.126;5.572;2023-03-14T12:06:11;9.02;;;2.10;;
18249;SDS011;27980;52.126;5.572;2023-03-14T12:08:46;7.40;;;2.17;;
18249;SDS011;27980;52.126;5.572;2023-03-14T12:11:15;9.30;;;1.92;;
18249;SDS011;27980;52.126;5.572;2023-03-14T12:13:47;9.80;;;2.25;;
18249;SDS011;27980;52.126;5.572;2023-03-14T12:19:14;6.80;;;1.60;;
18249;SDS011;27980;52.126;5.572;2023-03-14T12:21:46;7.05;;;1.60;;
18249;SDS011;27980;52.126;5.572;2023-03-14T12:24:18;6.43;;;2.40;;
18249;SDS011;27980;52.126;5.572;2023-03-14T12:26:48;11.68;;;2.10;;
18249;SDS011;27980;52.126;5.572;2023-03-14T12:29:17;5.88;;;1.70;;
18249;SDS011;27980;52.126;5.572;2023-03-14T12:31:45;7.95;;;1.80;;
18249;SDS011;27980;52.126;5.572;2023-03-14T12:34:30;7.70;;;1.70;;
18249;SDS011;27980;52.126;5.572;2023-03-14T12:37:10;6.82;;;1.60;;
18249;SDS011;27980;52.126;5.572;2023-03-14T12:39:40;5.82;;;1.58;;
18249;SDS011;27980;52.126;5.572;2023-03-14T12:42:10;12.40;;;2.40;;
18249;SDS011;27980;52.126;5.572;2023-03-14T12:44:42;13.52;;;5.45;;
18249;SDS011;27980;52.126;5.572;2023-03-14T12:50:13;5.38;;;1.80;;
18249;SDS011;27980;52.126;5.572;2023-03-14T12:52:43;6.60;;;2.00;;
18249;SDS011;27980;52.126;5.572;2023-03-14T12:55:12;8.55;;;1.88;;
18249;SDS011;27980;52.126;5.572;2023-03-14T12:57:42;4.53;;;1.70;;
18249;SDS011;27980;52.126;5.572;2023-03-14T13:00:19;4.15;;;1.13;;
18249;SDS011;27980;52.126;5.572;2023-03-14T13:02:47;4.90;;;1.40;;
18249;SDS011;27980;52.126;5.572;2023-03-14T13:05:16;7.78;;;1.45;;
18249;SDS011;27980;52.126;5.572;2023-03-14T13:08:03;5.88;;;1.50;;
18249;SDS011;27980;52.126;5.572;2023-03-14T13:10:29;6.35;;;1.40;;
18249;SDS011;27980;52.126;5.572;2023-03-14T13:12:57;4.63;;;1.77;;
18249;SDS011;27980;52.126;5.572;2023-03-14T13:15:32;4.57;;;1.40;;
18249;SDS011;27980;52.126;5.572;2023-03-14T13:18:01;9.35;;;2.08;;
18249;SDS011;27980;52.126;5.572;2023-03-14T13:20:29;6.28;;;1.50;;
18249;SDS011;27980;52.126;5.572;2023-03-14T13:22:56;7.97;;;1.60;;
18249;SDS011;27980;52.126;5.572;2023-03-14T13:25:23;3.88;;;1.38;;
18249;SDS011;27980;52.126;5.572;2023-03-14T13:27:49;5.57;;;2.00;;
18249;SDS011;27980;52.126;5.572;2023-03-14T13:30:21;6.47;;;1.63;;
18249;SDS011;27980;52.126;5.572;2023-03-14T13:32:50;5.35;;;1.70;;
18249;SDS011;27980;52.126;5.572;2023-03-14T13:35:18;6.53;;;1.40;;
18249;SDS011;27980;52.126;5.572;2023-03-14T13:37:46;6.00;;;1.85;;
18249;SDS011;27980;52.126;5.572;2023-03-14T13:40:28;7.90;;;1.60;;
18249;SDS011;27980;52.126;5.572;2023-03-14T13:43:06;10.65;;;1.92;;
18249;SDS011;27980;52.126;5.572;2023-03-14T13:45:48;6.63;;;1.55;;
18249;SDS011;27980;52.126;5.572;2023-03-14T13:48:16;6.18;;;1.77;;
18249;SDS011;27980;52.126;5.572;2023-03-14T13:50:49;7.28;;;1.45;;
18249;SDS011;27980;52.126;5.572;2023-03-14T13:53:16;5.90;;;1.50;;
18249;SDS011;27980;52.126;5.572;2023-03-14T13:55:43;6.38;;;1.55;;
18249;SDS011;27980;52.126;5.572;2023-03-14T13:58:11;5.00;;;1.33;;
18249;SDS011;27980;52.126;5.572;2023-03-14T14:00:39;6.47;;;1.70;;
18249;SDS011;27980;52.126;5.572;2023-03-14T14:03:08;6.50;;;1.40;;
18249;SDS011;27980;52.126;5.572;2023-03-14T14:05:40;6.30;;;1.40;;
18249;SDS011;27980;52.126;5.572;2023-03-14T14:08:10;6.75;;;1.77;;
18249;SDS011;27980;52.126;5.572;2023-03-14T14:10:38;3.78;;;1.30;;
18249;SDS011;27980;52.126;5.572;2023-03-14T14:13:08;8.10;;;1.80;;
18249;SDS011;27980;52.126;5.572;2023-03-14T14:15:36;4.78;;;1.55;;
18249;SDS011;27980;52.126;5.572;2023-03-14T14:18:03;9.63;;;2.17;;
18249;SDS011;27980;52.126;5.572;2023-03-14T14:20:31;6.55;;;1.67;;
18249;SDS011;27980;52.126;5.572;2023-03-14T14:23:01;5.35;;;1.65;;
18249;SDS011;27980;52.126;5.572;2023-03-14T14:25:29;8.13;;;1.60;;
18249;SDS011;27980;52.126;5.572;2023-03-14T14:27:56;7.70;;;1.60;;
18249;SDS011;27980;52.126;5.572;2023-03-14T14:30:31;4.65;;;1.65;;
18249;SDS011;27980;52.126;5.572;2023-03-14T14:33:16;6.53;;;1.52;;
18249;SDS011;27980;52.126;5.572;2023-03-14T14:35:48;6.28;;;1.33;;
18249;SDS011;27980;52.126;5.572;2023-03-14T14:38:17;7.88;;;1.70;;
18249;SDS011;27980;52.126;5.572;2023-03-14T14:40:45;4.60;;;1.48;;
18249;SDS011;27980;52.126;5.572;2023-03-14T14:43:14;3.67;;;1.45;;
18249;SDS011;27980;52.126;5.572;2023-03-14T14:45:42;6.28;;;1.60;;
18249;SDS011;27980;52.126;5.572;2023-03-14T14:48:10;4.50;;;1.50;;
18249;SDS011;27980;52.126;5.572;2023-03-14T14:50:38;8.88;;;1.42;;
18249;SDS011;27980;52.126;5.572;2023-03-14T14:53:18;7.85;;;1.73;;
18249;SDS011;27980;52.126;5.572;2023-03-14T14:55:49;5.70;;;1.40;;
18249;SDS011;27980;52.126;5.572;2023-03-14T14:58:18;7.97;;;1.90;;
18249;SDS011;27980;52.126;5.572;2023-03-14T15:00:50;8.15;;;1.83;;